createdAt,value
2019-03-05T00:01:24.195Z,2.35
2019-03-05T00:03:56.156Z,3.00
2019-03-05T00:06:27.796Z,1.85
2019-03-05T00:08:59.526Z,2.05
2019-03-05T00:11:31.528Z,1.57
2019-03-05T00:14:02.876Z,1.90
2019-03-05T00:16:34.544Z,2.37
2019-03-05T00:19:06.085Z,2.50
2019-03-05T00:21:37.675Z,1.57
2019-03-05T00:24:44.173Z,2.00
2019-03-05T00:27:15.856Z,2.30
2019-03-05T00:30:20.897Z,1.95
2019-03-05T00:33:03.652Z,1.32
2019-03-05T00:36:17.660Z,2.15
2019-03-05T00:39:31.994Z,1.60
2019-03-05T00:42:40.327Z,1.67
2019-03-05T00:45:47.445Z,1.87
2019-03-05T00:49:14.658Z,1.60
2019-03-05T00:52:26.152Z,1.65
2019-03-05T00:55:29.949Z,1.98
2019-03-05T00:58:22.007Z,1.42
2019-03-05T01:01:27.278Z,1.40
2019-03-05T01:04:39.245Z,1.85
2019-03-05T01:07:10.922Z,1.45
2019-03-05T01:09:42.452Z,1.52
2019-03-05T01:12:14.926Z,1.57
2019-03-05T01:14:47.084Z,2.10
2019-03-05T01:17:18.659Z,1.52
2019-03-05T01:19:50.218Z,1.70
2019-03-05T01:22:21.843Z,1.50
2019-03-05T01:24:53.445Z,1.67
2019-03-05T01:27:25.040Z,1.77
2019-03-05T01:29:56.621Z,1.52
2019-03-05T01:32:42.278Z,1.60
2019-03-05T01:35:21.573Z,2.25
2019-03-05T01:37:53.193Z,1.90
2019-03-05T01:40:29.116Z,1.72
2019-03-05T01:43:00.743Z,1.40
2019-03-05T01:45:32.360Z,1.50
2019-03-05T01:48:03.728Z,1.75
2019-03-05T01:50:35.296Z,1.60
2019-03-05T01:53:07.227Z,1.62
2019-03-05T01:55:38.818Z,1.95
2019-03-05T01:58:10.424Z,1.67
2019-03-05T02:00:42.193Z,1.35
2019-03-05T02:03:14.117Z,1.70
2019-03-05T02:05:45.950Z,1.85
2019-03-05T02:08:18.313Z,1.82
2019-03-05T02:10:50.142Z,2.12
2019-03-05T02:13:22.131Z,2.37
2019-03-05T02:15:53.501Z,1.90
2019-03-05T02:18:27.524Z,1.90
2019-03-05T02:21:00.138Z,2.02
2019-03-05T02:24:02.038Z,2.10
2019-03-05T02:27:10.065Z,2.17
2019-03-05T02:30:17.328Z,2.17
2019-03-05T02:33:32.084Z,1.98
2019-03-05T02:36:15.688Z,2.50
2019-03-05T02:39:19.816Z,2.17
2019-03-05T02:41:58.483Z,2.35
2019-03-05T02:45:07.403Z,2.20
2019-03-05T02:48:12.210Z,2.60
2019-03-05T02:51:15.121Z,2.02
2019-03-05T02:54:30.081Z,3.00
2019-03-05T02:57:08.918Z,3.72
2019-03-05T02:59:41.015Z,2.72
2019-03-05T03:02:30.173Z,2.85
2019-03-05T03:05:09.466Z,2.40
2019-03-05T03:07:41.254Z,3.45
2019-03-05T03:10:24.065Z,2.67
2019-03-05T03:12:55.830Z,2.83
2019-03-05T03:15:27.347Z,2.37
2019-03-05T03:17:59.097Z,3.00
2019-03-05T03:20:30.718Z,2.75
2019-03-05T03:23:02.357Z,2.98
2019-03-05T03:25:34.091Z,2.75
2019-03-05T03:28:06.648Z,2.58
2019-03-05T03:30:38.269Z,2.65
2019-03-05T03:33:09.840Z,3.30
2019-03-05T03:35:41.419Z,2.90
2019-03-05T03:38:13.065Z,2.75
2019-03-05T03:40:44.540Z,2.25
2019-03-05T03:43:16.283Z,3.00
2019-03-05T03:45:47.976Z,3.00
2019-03-05T03:48:19.589Z,2.77
2019-03-05T03:50:51.319Z,2.67
2019-03-05T03:53:23.152Z,3.20
2019-03-05T03:55:54.654Z,2.72
2019-03-05T03:58:26.619Z,2.35
2019-03-05T04:00:59.109Z,2.98
2019-03-05T04:03:30.843Z,2.77
2019-03-05T04:06:02.710Z,3.20
2019-03-05T04:08:34.390Z,2.90
2019-03-05T04:11:06.044Z,2.80
2019-03-05T04:13:38.205Z,2.60
2019-03-05T04:16:09.941Z,3.00
2019-03-05T04:18:41.553Z,3.00
2019-03-05T04:21:13.123Z,2.55
2019-03-05T04:23:44.679Z,2.25
2019-03-05T04:26:16.121Z,2.70
2019-03-05T04:28:47.407Z,2.85
2019-03-05T04:31:19.111Z,2.60
2019-03-05T04:33:50.723Z,3.20
2019-03-05T04:36:21.993Z,4.20
2019-03-05T04:38:53.660Z,3.22
2019-03-05T04:41:25.259Z,3.37
2019-03-05T04:43:57.017Z,3.15
2019-03-05T04:46:33.238Z,3.87
2019-03-05T04:49:09.577Z,2.95
2019-03-05T04:51:42.593Z,4.08
2019-03-05T04:54:14.934Z,4.15
2019-03-05T04:56:46.430Z,2.72
2019-03-05T04:59:18.325Z,2.58
2019-03-05T05:01:50.002Z,3.42
2019-03-05T05:04:21.293Z,3.37
2019-03-05T05:06:54.390Z,3.10
2019-03-05T05:09:26.263Z,3.80
2019-03-05T05:11:58.231Z,2.83
2019-03-05T05:14:29.763Z,3.60
2019-03-05T05:17:01.272Z,4.40
2019-03-05T05:19:32.993Z,4.47
2019-03-05T05:22:04.498Z,3.70
2019-03-05T05:24:36.047Z,4.03
2019-03-05T05:27:07.321Z,3.87
2019-03-05T05:29:38.930Z,3.37
2019-03-05T05:32:10.502Z,3.80
2019-03-05T05:34:42.332Z,4.20
2019-03-05T05:37:13.914Z,3.98
2019-03-05T05:40:21.234Z,4.12
2019-03-05T05:42:52.906Z,4.47
2019-03-05T05:45:25.810Z,4.33
2019-03-05T05:47:57.353Z,4.17
2019-03-05T05:50:28.962Z,3.77
2019-03-05T05:53:01.942Z,4.87
2019-03-05T05:55:33.635Z,3.98
2019-03-05T05:58:05.203Z,4.10
2019-03-05T06:00:38.617Z,4.05
2019-03-05T06:03:10.280Z,4.20
2019-03-05T06:05:41.705Z,4.37
2019-03-05T06:08:14.585Z,3.67
2019-03-05T06:10:46.442Z,3.62
2019-03-05T06:13:17.931Z,3.80
2019-03-05T06:15:49.454Z,4.28
2019-03-05T06:18:21.121Z,3.10
2019-03-05T06:20:52.805Z,3.45
2019-03-05T06:23:24.471Z,2.90
2019-03-05T06:25:55.851Z,3.10
2019-03-05T06:28:27.740Z,3.47
2019-03-05T06:30:59.204Z,3.17
2019-03-05T06:33:30.451Z,3.25
2019-03-05T06:36:02.416Z,3.77
2019-03-05T06:38:34.369Z,2.70
2019-03-05T06:41:07.660Z,3.17
2019-03-05T06:43:39.138Z,3.55
2019-03-05T06:46:11.677Z,2.83
2019-03-05T06:48:43.173Z,3.20
2019-03-05T06:51:14.789Z,3.80
2019-03-05T06:53:46.509Z,3.45
2019-03-05T06:56:17.840Z,3.70
2019-03-05T06:58:49.511Z,2.92
2019-03-05T07:01:21.486Z,3.17
2019-03-05T07:03:52.858Z,3.37
2019-03-05T07:06:49.334Z,3.20
2019-03-05T07:09:33.580Z,3.40
2019-03-05T07:12:47.135Z,2.85
2019-03-05T07:15:37.996Z,2.90
2019-03-05T07:18:16.815Z,3.35
2019-03-05T07:21:20.466Z,2.45
2019-03-05T07:24:13.734Z,2.72
2019-03-05T07:26:45.286Z,3.02
2019-03-05T07:29:18.079Z,2.60
2019-03-05T07:31:49.835Z,2.58
2019-03-05T07:34:22.970Z,2.75
2019-03-05T07:36:54.452Z,2.77
2019-03-05T07:39:26.056Z,2.60
2019-03-05T07:41:57.434Z,2.98
2019-03-05T07:44:29.007Z,3.40
2019-03-05T07:47:00.584Z,2.10
2019-03-05T07:49:42.934Z,3.05
2019-03-05T07:52:05.723Z,3.00
2019-03-05T07:54:37.173Z,2.62
2019-03-05T07:57:08.879Z,3.05
2019-03-05T07:59:40.341Z,3.08
2019-03-05T08:02:11.759Z,3.25
2019-03-05T08:04:43.174Z,2.83
2019-03-05T08:07:15.074Z,2.85
2019-03-05T08:09:46.709Z,2.95
2019-03-05T08:12:46.304Z,2.70
2019-03-05T08:16:02.090Z,3.27
2019-03-05T08:18:24.676Z,3.15
2019-03-05T08:20:56.185Z,3.30
2019-03-05T08:23:27.961Z,3.17
2019-03-05T08:26:00.222Z,3.60
2019-03-05T08:28:31.978Z,2.90
2019-03-05T08:31:03.779Z,2.50
2019-03-05T08:33:35.519Z,3.37
2019-03-05T08:36:08.297Z,2.52
2019-03-05T08:38:39.996Z,2.92
2019-03-05T08:41:32.339Z,2.95
2019-03-05T08:44:21.464Z,3.12
2019-03-05T08:46:52.856Z,3.33
2019-03-05T08:49:24.477Z,2.75
2019-03-05T08:51:56.022Z,2.40
2019-03-05T08:54:27.593Z,2.62
2019-03-05T08:57:00.320Z,2.50
2019-03-05T08:59:32.763Z,2.85
2019-03-05T09:02:04.420Z,3.00
2019-03-05T09:04:36.114Z,2.92
2019-03-05T09:07:07.863Z,3.98
2019-03-05T09:09:39.500Z,2.75
2019-03-05T09:12:11.857Z,2.20
2019-03-05T09:14:43.788Z,2.87
2019-03-05T09:17:16.094Z,2.67
2019-03-05T09:19:47.689Z,2.25
2019-03-05T09:22:19.368Z,2.47
2019-03-05T09:24:50.939Z,2.10
2019-03-05T09:27:22.825Z,2.05
2019-03-05T09:29:54.356Z,2.55
2019-03-05T09:32:26.309Z,2.33
2019-03-05T09:34:57.763Z,2.40
2019-03-05T09:37:29.505Z,2.15
2019-03-05T09:40:01.319Z,2.35
2019-03-05T09:42:39.742Z,2.40
2019-03-05T09:45:07.634Z,2.70
2019-03-05T09:47:39.360Z,2.80
2019-03-05T09:50:12.698Z,3.00
2019-03-05T09:52:54.461Z,2.35
2019-03-05T09:55:19.444Z,2.35
2019-03-05T09:58:06.845Z,2.45
2019-03-05T10:00:29.237Z,2.30
2019-03-05T10:03:01.192Z,2.50
2019-03-05T10:05:33.103Z,2.83
2019-03-05T10:08:04.873Z,2.30
2019-03-05T10:10:37.083Z,2.27
2019-03-05T10:13:09.128Z,2.98
2019-03-05T10:15:41.668Z,2.95
2019-03-05T10:18:13.369Z,2.52
2019-03-05T10:20:45.789Z,2.45
2019-03-05T10:23:17.268Z,2.40
2019-03-05T10:25:48.829Z,2.15
2019-03-05T10:28:20.474Z,2.52
2019-03-05T10:30:52.098Z,2.40
2019-03-05T10:33:23.824Z,2.83
2019-03-05T10:35:55.975Z,2.42
2019-03-05T10:38:27.629Z,2.80
2019-03-05T10:40:59.684Z,2.77
2019-03-05T10:43:31.583Z,2.95
2019-03-05T10:46:03.153Z,2.50
2019-03-05T10:48:34.940Z,2.58
2019-03-05T10:51:06.750Z,2.42
2019-03-05T10:53:38.729Z,2.27
2019-03-05T10:56:10.443Z,3.22
2019-03-05T10:58:42.236Z,3.15
2019-03-05T11:01:14.616Z,2.70
2019-03-05T11:03:46.511Z,2.52
2019-03-05T11:06:18.211Z,2.83
2019-03-05T11:08:51.155Z,2.70
2019-03-05T11:11:23.744Z,2.40
2019-03-05T11:13:55.373Z,3.55
2019-03-05T11:16:31.101Z,3.20
2019-03-05T11:19:00.964Z,2.77
2019-03-05T11:21:32.900Z,3.25
2019-03-05T11:24:04.800Z,3.02
2019-03-05T11:26:36.692Z,2.65
2019-03-05T11:29:08.492Z,2.72
2019-03-05T11:31:40.600Z,5.30
2019-03-05T11:34:13.340Z,5.70
2019-03-05T11:36:45.259Z,6.03
2019-03-05T11:39:17.535Z,4.53
2019-03-05T11:41:49.028Z,5.28
2019-03-05T11:44:20.591Z,2.87
2019-03-05T11:46:52.194Z,8.25
2019-03-05T11:49:24.002Z,6.40
2019-03-05T11:51:55.696Z,7.47
2019-03-05T11:54:27.498Z,4.95
2019-03-05T11:57:01.450Z,2.50
2019-03-05T11:59:32.269Z,3.17
2019-03-05T12:02:05.727Z,2.65
2019-03-05T12:04:37.192Z,2.37
2019-03-05T12:07:08.800Z,3.00
2019-03-05T12:09:40.314Z,2.67
2019-03-05T12:12:11.781Z,2.30
2019-03-05T12:14:43.426Z,3.75
2019-03-05T12:17:14.866Z,2.12
2019-03-05T12:19:46.447Z,2.40
2019-03-05T12:22:18.365Z,2.75
2019-03-05T12:24:49.710Z,2.90
2019-03-05T12:27:21.763Z,2.10
2019-03-05T12:29:53.564Z,2.50
2019-03-05T12:32:25.178Z,2.52
2019-03-05T12:34:57.084Z,2.62
2019-03-05T12:37:29.227Z,2.27
2019-03-05T12:40:00.859Z,1.90
2019-03-05T12:42:32.578Z,1.77
2019-03-05T12:45:04.155Z,2.27
2019-03-05T12:47:35.979Z,2.17
2019-03-05T12:50:09.695Z,2.02
2019-03-05T12:52:41.306Z,1.72
2019-03-05T12:55:13.295Z,2.00
2019-03-05T12:57:45.187Z,1.30
2019-03-05T13:00:20.593Z,1.70
2019-03-05T13:02:52.726Z,1.80
2019-03-05T13:05:24.346Z,2.02
2019-03-05T13:07:56.383Z,1.85
2019-03-05T13:10:34.814Z,1.55
2019-03-05T13:13:01.861Z,1.60
2019-03-05T13:15:33.522Z,1.45
2019-03-05T13:18:04.986Z,1.70
2019-03-05T13:20:36.477Z,2.00
2019-03-05T13:23:09.630Z,2.05
2019-03-05T13:25:41.391Z,1.80
2019-03-05T13:28:13.102Z,1.57
2019-03-05T13:30:44.623Z,1.70
2019-03-05T13:33:16.290Z,2.10
2019-03-05T13:35:47.876Z,1.20
2019-03-05T13:38:19.541Z,1.77
2019-03-05T13:40:51.004Z,1.72
2019-03-05T13:43:22.619Z,1.50
2019-03-05T13:45:54.183Z,1.77
2019-03-05T13:49:18.025Z,1.90
2019-03-05T13:52:22.490Z,2.02
2019-03-05T13:55:26.874Z,2.08
2019-03-05T13:58:24.239Z,1.98
2019-03-05T14:00:56.086Z,2.10
2019-03-05T14:03:55.173Z,2.17
2019-03-05T14:07:08.704Z,1.65
2019-03-05T14:09:38.321Z,2.30
2019-03-05T14:12:09.922Z,1.85
2019-03-05T14:14:41.548Z,1.50
2019-03-05T14:17:15.049Z,1.75
2019-03-05T14:19:46.702Z,1.92
2019-03-05T14:22:19.045Z,1.92
2019-03-05T14:25:01.623Z,2.08
2019-03-05T14:27:24.186Z,1.87
2019-03-05T14:29:55.844Z,1.72
2019-03-05T14:32:27.203Z,2.52
2019-03-05T14:35:03.246Z,1.72
2019-03-05T14:37:34.969Z,1.55
2019-03-05T14:40:23.405Z,1.70
2019-03-05T14:42:42.599Z,1.80
2019-03-05T14:45:20.778Z,1.52
2019-03-05T14:47:54.601Z,2.27
2019-03-05T14:50:26.365Z,2.00
2019-03-05T14:52:57.971Z,1.77
2019-03-05T14:55:29.746Z,1.82
2019-03-05T14:58:01.300Z,1.87
2019-03-05T15:00:34.112Z,2.40
2019-03-05T15:03:05.893Z,2.00
2019-03-05T15:05:37.669Z,1.80
2019-03-05T15:08:09.332Z,1.70
2019-03-05T15:10:40.831Z,1.82
2019-03-05T15:13:17.378Z,2.12
2019-03-05T15:15:45.732Z,1.30
2019-03-05T15:18:17.512Z,1.40
2019-03-05T15:20:49.222Z,1.75
2019-03-05T15:23:21.063Z,1.75
2019-03-05T15:25:52.567Z,2.10
2019-03-05T15:28:24.319Z,1.77
2019-03-05T15:30:56.255Z,1.42
2019-03-05T15:33:27.690Z,1.90
2019-03-05T15:35:59.243Z,2.15
2019-03-05T15:38:31.175Z,2.80
2019-03-05T15:41:02.710Z,1.85
2019-03-05T15:43:34.237Z,1.95
2019-03-05T15:46:06.322Z,2.08
2019-03-05T15:48:38.094Z,1.80
2019-03-05T15:51:09.989Z,2.52
2019-03-05T15:53:41.562Z,1.80
2019-03-05T15:56:13.292Z,1.90
2019-03-05T15:58:44.820Z,1.80
2019-03-05T16:01:22.168Z,1.72
2019-03-05T16:03:50.269Z,4.12
2019-03-05T16:06:21.828Z,1.35
2019-03-05T16:08:53.421Z,1.67
2019-03-05T16:11:24.873Z,2.98
2019-03-05T16:13:56.935Z,5.47
2019-03-05T16:16:29.581Z,3.95
2019-03-05T16:19:04.074Z,9.05
2019-03-05T16:21:37.119Z,6.22
2019-03-05T16:24:09.025Z,11.57
2019-03-05T16:26:40.888Z,2.40
2019-03-05T16:29:16.300Z,2.37
2019-03-05T16:31:49.824Z,4.72
2019-03-05T16:34:22.572Z,4.70
2019-03-05T16:37:10.856Z,2.05
2019-03-05T16:39:56.130Z,2.08
2019-03-05T16:42:32.291Z,2.40
2019-03-05T16:45:07.425Z,2.60
2019-03-05T16:47:43.686Z,9.15
2019-03-05T16:50:17.177Z,3.05
2019-03-05T16:52:53.364Z,2.33
2019-03-05T16:55:27.013Z,3.05
2019-03-05T16:58:16.773Z,3.80
2019-03-05T17:00:56.001Z,2.20
2019-03-05T17:03:32.158Z,9.80
2019-03-05T17:06:22.866Z,5.30
2019-03-05T17:09:05.724Z,5.42
2019-03-05T17:11:55.377Z,8.23
2019-03-05T17:14:27.623Z,9.03
2019-03-05T17:16:59.144Z,7.83
2019-03-05T17:19:32.470Z,12.95
2019-03-05T17:22:05.308Z,5.28
2019-03-05T17:24:37.121Z,6.25
2019-03-05T17:27:08.754Z,3.83
2019-03-05T17:29:41.871Z,7.03
2019-03-05T17:32:13.903Z,6.03
2019-03-05T17:34:46.030Z,16.37
2019-03-05T17:37:17.750Z,4.15
2019-03-05T17:39:49.530Z,4.05
2019-03-05T17:42:21.463Z,2.72
2019-03-05T17:44:54.317Z,3.75
2019-03-05T17:47:25.970Z,2.15
2019-03-05T17:49:57.714Z,2.42
2019-03-05T17:52:29.455Z,2.17
2019-03-05T17:55:01.336Z,2.70
2019-03-05T17:57:33.090Z,2.20
2019-03-05T18:00:05.143Z,2.25
2019-03-05T18:02:36.963Z,2.52
2019-03-05T18:05:09.401Z,3.20
2019-03-05T18:07:41.097Z,2.20
2019-03-05T18:10:13.352Z,4.20
2019-03-05T18:12:45.172Z,2.25
2019-03-05T18:15:17.253Z,2.52
2019-03-05T18:17:48.890Z,2.35
2019-03-05T18:20:21.043Z,2.35
2019-03-05T18:22:53.231Z,2.05
2019-03-05T18:25:24.588Z,2.30
2019-03-05T18:27:57.250Z,3.08
2019-03-05T18:30:28.843Z,2.20
2019-03-05T18:33:00.923Z,2.62
2019-03-05T18:35:32.943Z,2.90
2019-03-05T18:38:07.971Z,3.58
2019-03-05T18:40:39.483Z,2.30
2019-03-05T18:43:11.247Z,3.70
2019-03-05T18:45:42.935Z,2.42
2019-03-05T18:48:14.972Z,2.70
2019-03-05T18:50:47.049Z,3.00
2019-03-05T18:53:19.194Z,3.58
2019-03-05T18:55:50.900Z,2.70
2019-03-05T18:58:23.181Z,2.90
2019-03-05T19:00:54.932Z,2.52
2019-03-05T19:03:26.790Z,3.15
2019-03-05T19:05:58.562Z,4.15
2019-03-05T19:08:30.887Z,3.35
2019-03-05T19:11:02.552Z,3.58
2019-03-05T19:13:35.134Z,3.17
2019-03-05T19:16:07.195Z,3.62
2019-03-05T19:18:38.856Z,3.55
2019-03-05T19:21:11.290Z,3.30
2019-03-05T19:23:43.215Z,5.17
2019-03-05T19:26:15.550Z,3.77
2019-03-05T19:28:47.257Z,4.37
2019-03-05T19:31:33.081Z,3.90
2019-03-05T19:34:04.904Z,4.90
2019-03-05T19:36:36.492Z,4.75
2019-03-05T19:39:08.649Z,4.47
2019-03-05T19:41:41.898Z,4.20
2019-03-05T19:44:13.661Z,5.67
2019-03-05T19:46:45.566Z,5.65
2019-03-05T19:49:17.250Z,4.60
2019-03-05T19:51:48.941Z,4.25
2019-03-05T19:54:21.380Z,5.22
2019-03-05T19:56:53.202Z,5.42
2019-03-05T19:59:24.812Z,4.60
2019-03-05T20:01:56.237Z,5.45
2019-03-05T20:04:27.872Z,4.78
2019-03-05T20:06:59.674Z,5.00
2019-03-05T20:09:31.796Z,4.25
2019-03-05T20:12:03.529Z,3.85
2019-03-05T20:14:35.322Z,5.17
2019-03-05T20:17:07.039Z,5.35
2019-03-05T20:19:38.762Z,3.47
2019-03-05T20:22:10.588Z,3.90
2019-03-05T20:24:42.323Z,4.00
2019-03-05T20:27:16.299Z,4.97
2019-03-05T20:29:47.388Z,3.30
2019-03-05T20:32:19.257Z,3.55
2019-03-05T20:34:51.070Z,4.03
2019-03-05T20:37:22.930Z,3.33
2019-03-05T20:39:55.167Z,4.35
2019-03-05T20:42:26.848Z,3.05
2019-03-05T20:44:59.109Z,3.75
2019-03-05T20:47:30.740Z,3.40
2019-03-05T20:50:02.546Z,3.33
2019-03-05T20:52:35.922Z,3.90
2019-03-05T20:55:10.335Z,3.47
2019-03-05T20:57:42.328Z,2.80
2019-03-05T21:00:33.155Z,2.95
2019-03-05T21:03:05.564Z,3.12
2019-03-05T21:05:41.601Z,3.05
2019-03-05T21:08:13.662Z,2.72
2019-03-05T21:10:45.638Z,2.62
2019-03-05T21:13:17.544Z,2.33
2019-03-05T21:15:49.421Z,3.05
2019-03-05T21:18:21.585Z,2.70
2019-03-05T21:20:53.495Z,2.25
2019-03-05T21:23:25.312Z,2.90
2019-03-05T21:25:56.976Z,2.08
2019-03-05T21:28:28.671Z,2.87
2019-03-05T21:31:00.318Z,2.72
2019-03-05T21:33:32.689Z,2.80
2019-03-05T21:36:04.442Z,2.47
2019-03-05T21:38:35.994Z,2.75
2019-03-05T21:41:07.554Z,3.10
2019-03-05T21:43:39.568Z,3.12
2019-03-05T21:46:14.917Z,2.27
2019-03-05T21:48:46.717Z,2.72
2019-03-05T21:51:18.307Z,1.98
2019-03-05T21:53:49.959Z,2.80
2019-03-05T21:56:21.997Z,2.58
2019-03-05T21:58:53.506Z,2.42
2019-03-05T22:01:25.283Z,2.47
2019-03-05T22:03:57.107Z,2.40
2019-03-05T22:06:29.367Z,2.20
2019-03-05T22:09:01.294Z,2.50
2019-03-05T22:11:36.393Z,2.40
2019-03-05T22:14:09.204Z,2.42
2019-03-05T22:16:41.221Z,2.10
2019-03-05T22:19:12.991Z,1.40
2019-03-05T22:21:44.821Z,1.80
2019-03-05T22:24:16.492Z,1.70
2019-03-05T22:26:47.995Z,1.60
2019-03-05T22:29:19.640Z,1.90
2019-03-05T22:31:51.642Z,1.50
2019-03-05T22:34:23.744Z,1.27
2019-03-05T22:36:55.714Z,1.30
2019-03-05T22:39:27.698Z,1.62
2019-03-05T22:41:59.524Z,1.27
2019-03-05T22:44:31.412Z,1.35
2019-03-05T22:47:03.180Z,1.22
2019-03-05T22:49:35.143Z,1.52
2019-03-05T22:52:07.292Z,1.30
2019-03-05T22:54:39.052Z,1.80
2019-03-05T22:57:10.542Z,1.70
2019-03-05T22:59:42.196Z,2.02
2019-03-05T23:02:13.824Z,2.02
2019-03-05T23:04:46.554Z,2.05
2019-03-05T23:07:18.079Z,2.60
2019-03-05T23:09:49.868Z,2.02
2019-03-05T23:12:21.410Z,1.75
2019-03-05T23:14:55.918Z,2.15
2019-03-05T23:17:27.763Z,2.40
2019-03-05T23:20:00.056Z,2.20
2019-03-05T23:22:31.641Z,2.22
2019-03-05T23:25:03.753Z,2.55
2019-03-05T23:27:36.860Z,2.50
2019-03-05T23:30:10.747Z,3.22
2019-03-05T23:32:43.131Z,4.92
2019-03-05T23:35:16.359Z,3.60
2019-03-05T23:37:48.048Z,2.92
2019-03-05T23:40:20.155Z,3.98
2019-03-05T23:42:51.893Z,3.72
2019-03-05T23:45:23.436Z,3.62
2019-03-05T23:47:55.166Z,4.10
2019-03-05T23:50:27.027Z,3.70
2019-03-05T23:52:58.962Z,3.55
2019-03-05T23:55:31.035Z,4.00
2019-03-05T23:58:02.850Z,4.87
